Time;durP1;ratioP1;P1;durP2;ratioP2;P2;SDS_P1;SDS_P2;PMS_P1;PMS_P2;Temp;Humidity;BMP_temperature;BMP_pressure;BME280_temperature;BME280_humidity;BME280_pressure;Samples;Min_cycle;Max_cycle;Signal;HPM_P1;HPM_P2
2022/10/20 00:00:27;;;;;;;5.28;2.60;;;8.10;99.90;;;;;;4985578;28;20039;-43
2022/10/20 00:02:53;;;;;;;6.30;2.50;;;8.10;99.90;;;;;;4986934;28;20049;-44
2022/10/20 00:05:19;;;;;;;5.78;2.47;;;8.10;99.90;;;;;;4983786;28;20484;-40
2022/10/20 00:07:44;;;;;;;7.07;2.50;;;8.10;99.90;;;;;;4989362;28;20068;-42
2022/10/20 00:10:10;;;;;;;9.43;2.58;;;8.00;99.90;;;;;;4987832;28;20053;-41
2022/10/20 00:12:36;;;;;;;7.72;2.35;;;8.00;99.90;;;;;;4989997;28;20125;-40
2022/10/20 00:15:02;;;;;;;5.53;2.72;;;8.00;99.90;;;;;;4990586;28;20034;-42
2022/10/20 00:17:27;;;;;;;8.18;2.25;;;8.00;99.90;;;;;;4991473;28;20034;-42
2022/10/20 00:19:53;;;;;;;5.93;2.47;;;7.90;99.90;;;;;;4991246;28;20117;-42
2022/10/20 00:22:19;;;;;;;4.85;2.22;;;7.90;99.90;;;;;;4990385;28;20411;-44
2022/10/20 00:24:44;;;;;;;6.85;2.75;;;7.90;99.90;;;;;;4987023;28;20096;-41
2022/10/20 00:27:10;;;;;;;6.35;2.75;;;7.90;99.90;;;;;;4985427;28;20407;-41
2022/10/20 00:29:36;;;;;;;15.50;2.50;;;7.80;99.90;;;;;;4989042;28;20082;-42
2022/10/20 00:32:01;;;;;;;10.38;3.08;;;7.80;99.90;;;;;;4990306;28;20046;-43
2022/10/20 00:34:27;;;;;;;5.88;2.50;;;7.80;99.90;;;;;;4989358;28;20129;-43
2022/10/20 00:36:53;;;;;;;4.25;2.42;;;7.80;99.90;;;;;;4990754;28;20065;-42
2022/10/20 00:39:18;;;;;;;5.75;2.30;;;7.80;99.90;;;;;;4992048;28;20356;-42
2022/10/20 00:41:44;;;;;;;8.73;2.88;;;7.80;99.90;;;;;;4989134;28;20407;-39
2022/10/20 00:44:47;;;;;;;5.82;2.60;;;7.80;99.90;;;;;;4989712;28;20274;-41
2022/10/20 00:47:18;;;;;;;7.25;2.47;;;7.80;99.90;;;;;;4987729;28;20042;-41
2022/10/20 00:49:44;;;;;;;6.50;2.63;;;7.70;99.90;;;;;;4985371;28;20110;-43
2022/10/20 00:52:10;;;;;;;5.72;1.98;;;7.70;99.90;;;;;;4990690;28;20121;-42
2022/10/20 00:54:36;;;;;;;7.55;2.45;;;7.70;99.90;;;;;;4985816;28;20500;-42
2022/10/20 00:57:02;;;;;;;9.27;3.08;;;7.70;99.90;;;;;;4988292;28;20058;-43
2022/10/20 00:59:34;;;;;;;3.97;1.90;;;7.70;99.90;;;;;;4989610;28;20089;-41
2022/10/20 01:02:01;;;;;;;5.60;2.20;;;7.70;99.90;;;;;;4984115;28;20113;-45
2022/10/20 01:04:28;;;;;;;3.47;1.98;;;7.70;99.90;;;;;;4984267;28;20037;-42
2022/10/20 01:06:55;;;;;;;5.68;2.00;;;7.60;99.90;;;;;;4989376;28;20054;-43
2022/10/20 01:09:20;;;;;;;7.90;2.20;;;7.60;99.90;;;;;;4992181;28;20046;-42
2022/10/20 01:12:14;;;;;;;5.05;2.10;;;7.60;99.90;;;;;;4987700;28;20042;-42
2022/10/20 01:15:12;;;;;;;4.10;2.17;;;7.60;99.90;;;;;;4991642;28;20182;-41
2022/10/20 01:17:43;;;;;;;6.28;2.35;;;7.60;99.90;;;;;;4976209;28;20043;-48
2022/10/20 01:20:51;;;;;;;4.00;2.28;;;7.60;99.90;;;;;;4984832;28;20527;-42
2022/10/20 01:23:29;;;;;;;4.68;1.77;;;7.50;99.90;;;;;;4982554;28;20507;-44
2022/10/20 01:26:44;;;;;;;9.00;2.88;;;7.50;99.90;;;;;;4987791;28;20052;-41
2022/10/20 01:29:21;;;;;;;5.75;2.42;;;7.50;99.90;;;;;;4988730;28;20419;-44
2022/10/20 01:32:06;;;;;;;4.95;2.35;;;7.50;99.90;;;;;;4991468;28;20537;-42
2022/10/20 01:34:51;;;;;;;5.80;2.20;;;7.50;99.90;;;;;;4985112;28;20440;-43
2022/10/20 01:37:50;;;;;;;7.43;2.33;;;7.40;99.90;;;;;;4988075;28;20031;-44
2022/10/20 01:40:30;;;;;;;6.18;2.35;;;7.50;99.90;;;;;;4986692;28;20053;-41
2022/10/20 01:43:02;;;;;;;6.22;2.63;;;7.40;99.90;;;;;;4981639;28;20073;-40
2022/10/20 01:45:31;;;;;;;3.92;2.10;;;7.40;99.90;;;;;;4985048;28;20050;-42
2022/10/20 01:47:59;;;;;;;6.13;2.75;;;7.40;99.90;;;;;;4988945;28;20117;-44
2022/10/20 01:50:25;;;;;;;4.55;2.40;;;7.40;99.90;;;;;;4986192;28;20061;-43
2022/10/20 01:52:58;;;;;;;4.53;2.40;;;7.40;99.90;;;;;;4986249;28;20042;-44
2022/10/20 01:55:23;;;;;;;7.80;2.00;;;7.40;99.90;;;;;;4989104;28;20097;-42
2022/10/20 01:58:09;;;;;;;7.72;2.08;;;7.40;99.90;;;;;;4986358;28;20708;-40
2022/10/20 02:00:37;;;;;;;4.97;2.03;;;7.40;99.90;;;;;;4981634;28;20518;-44
2022/10/20 02:03:21;;;;;;;4.13;1.85;;;7.40;99.90;;;;;;4982872;28;20050;-43
2022/10/20 02:06:21;;;;;;;5.15;2.17;;;7.40;99.90;;;;;;4982438;28;20101;-40
2022/10/20 02:08:53;;;;;;;5.18;2.30;;;7.40;99.90;;;;;;4984262;28;20507;-45
2022/10/20 02:11:37;;;;;;;6.68;2.30;;;7.30;99.90;;;;;;4985836;28;20039;-41
2022/10/20 02:14:04;;;;;;;4.53;2.22;;;7.30;99.90;;;;;;4984268;28;20411;-42
2022/10/20 02:16:37;;;;;;;5.57;2.40;;;7.30;99.90;;;;;;4988402;28;21394;-43
2022/10/20 02:19:06;;;;;;;6.88;2.50;;;7.30;99.90;;;;;;4983063;28;20542;-42
2022/10/20 02:21:32;;;;;;;6.88;2.72;;;7.30;99.90;;;;;;4981349;28;20517;-42
2022/10/20 02:24:02;;;;;;;5.72;2.33;;;;;;;;;;4988392;28;20042;-42
2022/10/20 02:26:31;;;;;;;4.63;2.50;;;7.30;99.90;;;;;;4985627;28;20546;-47
2022/10/20 02:29:01;;;;;;;7.85;1.85;;;7.30;99.90;;;;;;4985135;28;20145;-43
2022/10/20 02:31:27;;;;;;;7.00;2.60;;;7.30;99.90;;;;;;4983513;28;20041;-39
2022/10/20 02:33:55;;;;;;;6.55;2.55;;;7.20;99.90;;;;;;4986960;28;20038;-42
2022/10/20 02:36:26;;;;;;;5.00;2.22;;;7.20;99.90;;;;;;4983089;28;20586;-44
2022/10/20 02:38:53;;;;;;;5.45;2.15;;;7.20;99.90;;;;;;4990079;28;20073;-47
2022/10/20 02:41:18;;;;;;;6.32;2.40;;;7.20;99.90;;;;;;4989555;28;20049;-42
2022/10/20 02:43:44;;;;;;;6.60;2.40;;;7.20;99.90;;;;;;4984361;28;20046;-44
2022/10/20 02:46:10;;;;;;;8.13;3.30;;;7.20;99.90;;;;;;4987622;28;20049;-41
2022/10/20 02:48:37;;;;;;;5.88;2.15;;;7.20;99.90;;;;;;4980810;28;20132;-42
2022/10/20 02:51:06;;;;;;;4.97;2.47;;;7.20;99.90;;;;;;4983196;28;20129;-40
2022/10/20 02:53:32;;;;;;;5.13;2.42;;;7.20;99.90;;;;;;4984839;28;20504;-40
2022/10/20 02:55:58;;;;;;;5.45;2.40;;;7.20;99.90;;;;;;4986966;28;20035;-42
2022/10/20 02:58:24;;;;;;;7.40;2.90;;;7.20;99.90;;;;;;4981257;28;20053;-41
2022/10/20 03:00:50;;;;;;;5.70;2.25;;;7.20;99.90;;;;;;4980743;28;20043;-38
2022/10/20 03:03:17;;;;;;;4.35;2.20;;;7.20;99.90;;;;;;4984710;28;20113;-42
2022/10/20 03:05:43;;;;;;;6.45;2.70;;;7.20;99.90;;;;;;4983378;28;20038;-46
2022/10/20 03:08:10;;;;;;;6.90;2.80;;;7.20;99.90;;;;;;4980724;28;20042;-44
2022/10/20 03:10:37;;;;;;;5.78;2.53;;;7.20;99.90;;;;;;4984921;28;20038;-43
2022/10/20 03:13:04;;;;;;;7.75;2.65;;;7.20;99.90;;;;;;4982458;28;20047;-40
2022/10/20 03:15:30;;;;;;;7.63;2.85;;;7.20;99.90;;;;;;4987592;28;20104;-43
2022/10/20 03:17:56;;;;;;;5.93;2.50;;;7.20;99.90;;;;;;4987816;28;20038;-42
2022/10/20 03:20:21;;;;;;;5.45;2.30;;;7.20;99.90;;;;;;4982497;28;20049;-41
2022/10/20 03:22:47;;;;;;;6.95;2.60;;;7.20;99.90;;;;;;4985369;28;20042;-42
2022/10/20 03:25:13;;;;;;;6.00;2.63;;;7.20;99.90;;;;;;4982074;28;20037;-44
2022/10/20 03:27:38;;;;;;;4.10;2.38;;;7.20;99.90;;;;;;4987376;28;20046;-43
2022/10/20 03:30:05;;;;;;;6.55;2.28;;;7.20;99.90;;;;;;4983464;28;20073;-44
2022/10/20 03:32:30;;;;;;;5.15;2.55;;;7.20;99.90;;;;;;4983377;28;20545;-45
2022/10/20 03:34:56;;;;;;;7.20;3.00;;;7.20;99.90;;;;;;4985326;28;20079;-41
2022/10/20 03:37:21;;;;;;;5.32;2.20;;;7.20;99.90;;;;;;4985461;28;20503;-40
2022/10/20 03:39:47;;;;;;;6.07;3.10;;;7.20;99.90;;;;;;4983410;28;20046;-41
2022/10/20 03:42:14;;;;;;;4.40;2.60;;;7.20;99.90;;;;;;4987318;28;20392;-44
2022/10/20 03:44:39;;;;;;;4.45;2.28;;;7.20;99.90;;;;;;4983307;28;20101;-42
2022/10/20 03:47:05;;;;;;;8.98;2.85;;;7.20;99.90;;;;;;4985899;28;20495;-46
2022/10/20 03:49:32;;;;;;;6.63;2.63;;;7.20;99.90;;;;;;4984641;28;20034;-40
2022/10/20 03:51:58;;;;;;;5.80;2.70;;;7.20;99.90;;;;;;4982294;28;20049;-40
2022/10/20 03:54:24;;;;;;;8.10;2.60;;;7.20;99.90;;;;;;4981651;28;20038;-41
2022/10/20 03:56:50;;;;;;;5.40;2.58;;;7.30;99.90;;;;;;4980440;28;20026;-46
2022/10/20 03:59:15;;;;;;;5.28;2.22;;;7.20;99.90;;;;;;4983111;28;20034;-41
2022/10/20 04:01:45;;;;;;;6.15;2.88;;;7.20;99.90;;;;;;4988423;28;20149;-42
2022/10/20 04:04:11;;;;;;;5.85;2.35;;;7.30;99.90;;;;;;4982808;28;20045;-56
2022/10/20 04:06:36;;;;;;;5.93;2.50;;;7.20;99.90;;;;;;4985492;28;20491;-42
2022/10/20 04:09:03;;;;;;;4.05;2.35;;;7.20;99.90;;;;;;4982283;28;20043;-40
2022/10/20 04:11:30;;;;;;;4.82;2.78;;;7.30;99.90;;;;;;4986520;28;20539;-39
2022/10/20 04:13:56;;;;;;;5.38;2.53;;;7.30;99.90;;;;;;4981319;28;20051;-43
2022/10/20 04:16:21;;;;;;;5.57;2.67;;;7.20;99.90;;;;;;4980159;28;20125;-40
2022/10/20 04:18:47;;;;;;;6.78;2.83;;;7.30;99.90;;;;;;4980006;28;20034;-41
2022/10/20 04:21:13;;;;;;;6.05;3.13;;;7.20;99.90;;;;;;4982238;28;20038;-38
2022/10/20 04:23:38;;;;;;;6.60;3.10;;;7.20;99.90;;;;;;4981191;28;20478;-42
2022/10/20 04:26:13;;;;;;;5.07;2.90;;;7.20;99.90;;;;;;4978899;28;20419;-43
2022/10/20 04:28:39;;;;;;;5.47;2.80;;;7.20;99.90;;;;;;4985387;28;20080;-43
2022/10/20 04:31:05;;;;;;;6.65;2.55;;;7.20;99.90;;;;;;4985151;28;20042;-42
2022/10/20 04:33:32;;;;;;;7.50;3.33;;;7.20;99.90;;;;;;4985207;28;20449;-41
2022/10/20 04:36:04;;;;;;;5.95;2.92;;;7.20;99.90;;;;;;4982730;28;20134;-40
2022/10/20 04:38:31;;;;;;;6.53;3.00;;;7.20;99.90;;;;;;4978301;28;20030;-43
2022/10/20 04:40:58;;;;;;;7.55;3.00;;;7.20;99.90;;;;;;4985459;28;20043;-39
2022/10/20 04:43:24;;;;;;;7.82;3.60;;;7.10;99.90;;;;;;4985397;28;20423;-44
2022/10/20 04:45:50;;;;;;;6.50;3.13;;;7.10;99.90;;;;;;4982224;28;20038;-49
2022/10/20 04:48:16;;;;;;;6.05;3.30;;;7.10;99.90;;;;;;4986231;28;20117;-41
2022/10/20 04:50:42;;;;;;;7.35;3.15;;;7.10;99.90;;;;;;4986200;28;20041;-39
2022/10/20 04:53:08;;;;;;;5.50;2.67;;;7.20;99.90;;;;;;4982806;28;20121;-39
2022/10/20 04:55:34;;;;;;;7.50;3.03;;;7.10;99.90;;;;;;4979989;28;20078;-39
2022/10/20 04:58:00;;;;;;;7.13;3.72;;;7.10;99.90;;;;;;4983321;28;20045;-38
2022/10/20 05:00:26;;;;;;;7.50;3.45;;;7.10;99.90;;;;;;4986454;28;20042;-41
2022/10/20 05:02:51;;;;;;;8.48;3.65;;;7.10;99.90;;;;;;4988383;28;20064;-39
2022/10/20 05:05:17;;;;;;;9.35;3.83;;;7.10;99.90;;;;;;4988227;28;20046;-39
2022/10/20 05:07:43;;;;;;;8.20;3.97;;;7.10;99.90;;;;;;4982892;28;20055;-40
2022/10/20 05:10:09;;;;;;;7.70;3.97;;;7.10;99.90;;;;;;4985488;28;20050;-42
2022/10/20 05:12:34;;;;;;;7.65;4.25;;;7.10;99.90;;;;;;4991934;28;20043;-42
2022/10/20 05:15:00;;;;;;;6.93;4.05;;;7.10;99.90;;;;;;4987600;28;20495;-43
2022/10/20 05:17:28;;;;;;;8.25;3.90;;;7.10;99.90;;;;;;4983053;28;20046;-45
2022/10/20 05:19:54;;;;;;;7.28;4.32;;;7.10;99.90;;;;;;4986989;28;20137;-40
2022/10/20 05:22:20;;;;;;;6.38;4.00;;;7.10;99.90;;;;;;4986277;28;20177;-54
2022/10/20 05:24:45;;;;;;;8.73;5.07;;;7.10;99.90;;;;;;4979004;28;20463;-43
2022/10/20 05:27:11;;;;;;;9.38;5.00;;;7.10;99.90;;;;;;4987026;28;20056;-42
2022/10/20 05:29:37;;;;;;;8.40;4.78;;;7.10;99.90;;;;;;4986294;28;20046;-43
2022/10/20 05:32:02;;;;;;;7.93;4.53;;;7.10;99.90;;;;;;4984829;28;20125;-44
2022/10/20 05:34:28;;;;;;;7.50;4.10;;;7.10;99.90;;;;;;4987811;28;20038;-41
2022/10/20 05:36:54;;;;;;;10.20;4.25;;;7.10;99.90;;;;;;4985760;28;20077;-42
2022/10/20 05:39:20;;;;;;;6.05;3.97;;;7.10;99.90;;;;;;4984684;28;20035;-40
2022/10/20 05:41:45;;;;;;;9.95;4.95;;;7.10;99.90;;;;;;4986881;28;20041;-40
2022/10/20 05:44:11;;;;;;;13.32;4.90;;;7.10;99.90;;;;;;4984104;28;20407;-41
2022/10/20 05:46:40;;;;;;;9.57;4.70;;;7.10;99.90;;;;;;4983024;28;20606;-41
2022/10/20 05:49:08;;;;;;;8.80;4.60;;;7.10;99.90;;;;;;4988747;28;20057;-42
2022/10/20 05:51:35;;;;;;;13.68;5.25;;;7.10;99.90;;;;;;4988872;28;20038;-40
2022/10/20 05:54:02;;;;;;;7.78;4.50;;;7.10;99.90;;;;;;4987441;28;20172;-39
2022/10/20 05:56:29;;;;;;;10.13;5.60;;;7.10;99.90;;;;;;4989078;28;20030;-42
2022/10/20 05:58:56;;;;;;;10.13;5.07;;;7.10;99.90;;;;;;4987941;28;20038;-46
2022/10/20 06:01:25;;;;;;;8.35;4.68;;;7.10;99.90;;;;;;4983829;28;20511;-42
2022/10/20 06:03:56;;;;;;;11.15;5.15;;;7.10;99.90;;;;;;4986963;28;20484;-42
2022/10/20 06:06:24;;;;;;;12.13;5.70;;;7.10;99.90;;;;;;4987100;28;20048;-41
2022/10/20 06:08:50;;;;;;;10.00;5.10;;;7.10;99.90;;;;;;4986194;28;20471;-44
2022/10/20 06:11:17;;;;;;;11.75;5.38;;;7.10;99.90;;;;;;4983935;28;20149;-42
2022/10/20 06:13:43;;;;;;;12.00;5.78;;;7.10;99.90;;;;;;4985586;28;22128;-46
2022/10/20 06:16:12;;;;;;;8.63;5.45;;;7.10;99.90;;;;;;4986089;28;20093;-40
2022/10/20 06:18:38;;;;;;;8.65;4.72;;;7.10;99.90;;;;;;4988033;28;20034;-39
2022/10/20 06:21:08;;;;;;;9.00;5.82;;;7.10;99.90;;;;;;4987609;28;20495;-40
2022/10/20 06:23:34;;;;;;;9.20;6.05;;;7.10;99.90;;;;;;4985050;28;20811;-42
2022/10/20 06:26:09;;;;;;;8.60;4.82;;;7.20;99.90;;;;;;4983607;28;20124;-44
2022/10/20 06:28:36;;;;;;;8.32;5.03;;;7.10;99.90;;;;;;4977732;28;20049;-44
2022/10/20 06:31:23;;;;;;;8.93;5.40;;;7.20;99.90;;;;;;4989353;28;20047;-41
2022/10/20 06:33:49;;;;;;;9.68;5.82;;;7.20;99.90;;;;;;4985306;28;20046;-40
2022/10/20 06:36:16;;;;;;;8.60;5.60;;;7.20;99.90;;;;;;4985536;28;20049;-41
2022/10/20 06:38:42;;;;;;;11.48;5.47;;;7.20;99.90;;;;;;4984301;28;20038;-41
2022/10/20 06:41:14;;;;;;;8.27;5.35;;;7.20;99.90;;;;;;4986105;28;20038;-44
2022/10/20 06:43:40;;;;;;;9.63;6.00;;;7.20;99.90;;;;;;4983014;28;20100;-41
2022/10/20 06:46:10;;;;;;;9.20;6.03;;;7.30;99.90;;;;;;4988589;28;20042;-41
2022/10/20 06:48:36;;;;;;;10.98;6.00;;;7.30;99.90;;;;;;4986587;28;20553;-38
2022/10/20 06:51:04;;;;;;;9.65;5.57;;;7.30;99.90;;;;;;4985926;28;20034;-38
2022/10/20 06:53:30;;;;;;;11.18;5.55;;;7.30;99.90;;;;;;4978234;28;20046;-44
2022/10/20 06:56:01;;;;;;;8.88;5.53;;;7.30;99.90;;;;;;4980372;28;20034;-38
2022/10/20 06:58:27;;;;;;;10.43;5.28;;;7.30;99.90;;;;;;4986464;28;20101;-40
2022/10/20 07:01:03;;;;;;;11.07;5.70;;;7.40;99.90;;;;;;4984810;28;20400;-39
2022/10/20 07:03:31;;;;;;;12.13;5.90;;;7.40;99.90;;;;;;4982944;28;20037;-38
2022/10/20 07:05:57;;;;;;;9.40;6.32;;;7.40;99.90;;;;;;4984472;28;20049;-40
2022/10/20 07:08:25;;;;;;;10.82;5.97;;;7.40;99.90;;;;;;4985507;28;20058;-40
2022/10/20 07:11:02;;;;;;;10.40;6.05;;;7.40;99.90;;;;;;4984175;28;20269;-41
2022/10/20 07:13:29;;;;;;;10.43;5.55;;;7.50;99.90;;;;;;4987105;28;20555;-39
2022/10/20 07:15:56;;;;;;;8.57;5.00;;;7.50;99.90;;;;;;4983458;28;20038;-40
2022/10/20 07:18:22;;;;;;;11.70;5.65;;;7.50;99.90;;;;;;4983183;28;20034;-40
2022/10/20 07:20:48;;;;;;;11.90;6.22;;;7.50;99.90;;;;;;4983032;28;20034;-41
2022/10/20 07:23:13;;;;;;;9.23;5.45;;;7.60;99.90;;;;;;4980843;28;20543;-43
2022/10/20 07:25:39;;;;;;;10.82;5.95;;;7.60;99.90;;;;;;4985363;28;20090;-43
2022/10/20 07:28:05;;;;;;;12.82;5.55;;;7.60;99.90;;;;;;4983978;28;20156;-40
2022/10/20 07:30:30;;;;;;;9.57;5.53;;;7.60;99.90;;;;;;4984390;28;20030;-42
2022/10/20 07:32:56;;;;;;;9.43;5.65;;;7.70;99.90;;;;;;4984686;28;20124;-39
2022/10/20 07:35:22;;;;;;;8.82;5.90;;;7.70;99.90;;;;;;4984475;28;20557;-39
2022/10/20 07:37:49;;;;;;;9.40;6.22;;;7.80;99.90;;;;;;4984485;28;20546;-40
2022/10/20 07:40:14;;;;;;;10.23;6.63;;;7.80;99.90;;;;;;4982539;28;20036;-40
2022/10/20 07:42:40;;;;;;;10.32;6.65;;;7.90;99.90;;;;;;4983480;28;20058;-37
2022/10/20 07:45:06;;;;;;;10.77;6.50;;;7.90;99.90;;;;;;4984261;28;20061;-38
2022/10/20 07:47:32;;;;;;;9.70;5.57;;;8.00;99.90;;;;;;4984154;28;20432;-39
2022/10/20 07:49:57;;;;;;;8.45;5.72;;;8.00;99.90;;;;;;4984952;28;20046;-38
2022/10/20 07:52:23;;;;;;;16.58;6.78;;;8.10;99.90;;;;;;4977933;28;20047;-39
2022/10/20 07:54:49;;;;;;;10.98;5.93;;;8.10;99.90;;;;;;4984534;28;20042;-39
2022/10/20 07:57:14;;;;;;;10.38;6.00;;;8.20;99.90;;;;;;4977643;28;20069;-40
2022/10/20 07:59:40;;;;;;;9.30;5.28;;;8.20;99.90;;;;;;4985877;28;20463;-39
2022/10/20 08:02:06;;;;;;;9.63;5.70;;;8.30;99.90;;;;;;4982864;28;20550;-39
2022/10/20 08:04:32;;;;;;;9.25;5.70;;;8.40;99.90;;;;;;4981134;28;20525;-44
2022/10/20 08:06:58;;;;;;;8.70;5.47;;;8.40;99.90;;;;;;4981757;28;20038;-44
2022/10/20 08:09:25;;;;;;;12.25;5.72;;;8.50;99.90;;;;;;4986561;28;20046;-44
2022/10/20 08:11:51;;;;;;;10.15;6.15;;;8.50;99.90;;;;;;4981405;28;20046;-45
2022/10/20 08:14:16;;;;;;;9.45;5.85;;;8.60;99.90;;;;;;4979561;28;20050;-42
2022/10/20 08:16:42;;;;;;;10.65;5.63;;;8.70;99.90;;;;;;4984025;28;20480;-42
2022/10/20 08:19:08;;;;;;;13.63;5.57;;;8.70;99.90;;;;;;4981409;28;20451;-45
2022/10/20 08:21:33;;;;;;;9.75;5.78;;;8.80;99.90;;;;;;4982356;28;20077;-42
2022/10/20 08:24:01;;;;;;;9.95;5.95;;;8.80;99.90;;;;;;4986622;28;20039;-41
2022/10/20 08:26:27;;;;;;;11.85;6.25;;;8.90;99.90;;;;;;4982513;28;20030;-43
2022/10/20 08:28:53;;;;;;;8.68;5.50;;;9.00;99.90;;;;;;4984935;28;20034;-40
2022/10/20 08:31:20;;;;;;;10.13;5.60;;;9.10;99.90;;;;;;4985659;28;20395;-39
2022/10/20 08:33:46;;;;;;;9.20;6.13;;;9.10;99.90;;;;;;4982893;28;20043;-37
2022/10/20 08:36:13;;;;;;;8.90;5.22;;;9.20;99.90;;;;;;4985014;28;20030;-37
2022/10/20 08:38:40;;;;;;;9.68;5.20;;;9.30;99.90;;;;;;4985788;28;20083;-38
2022/10/20 08:41:20;;;;;;;9.85;5.53;;;9.40;99.90;;;;;;4984483;28;20046;-37
2022/10/20 08:43:49;;;;;;;11.63;5.32;;;9.40;99.90;;;;;;4984946;28;20055;-37
2022/10/20 08:46:16;;;;;;;10.15;5.55;;;9.50;99.90;;;;;;4986579;28;20043;-37
2022/10/20 08:48:44;;;;;;;10.60;6.20;;;9.50;99.90;;;;;;4987917;28;20038;-37
2022/10/20 08:51:32;;;;;;;9.13;5.93;;;9.60;99.90;;;;;;4987017;28;20507;-38
2022/10/20 08:54:00;;;;;;;12.15;5.47;;;9.60;99.90;;;;;;4984794;28;20488;-38
2022/10/20 08:56:28;;;;;;;8.40;5.38;;;9.70;99.90;;;;;;4987555;28;20045;-39
2022/10/20 08:58:55;;;;;;;7.65;4.88;;;9.70;99.90;;;;;;4991483;28;20049;-39
2022/10/20 09:01:23;;;;;;;10.00;5.55;;;9.70;99.90;;;;;;4985794;28;20089;-39
2022/10/20 09:03:58;;;;;;;9.13;5.72;;;9.80;99.90;;;;;;4984730;28;20038;-40
2022/10/20 09:06:24;;;;;;;9.07;5.68;;;9.90;99.90;;;;;;4983784;28;20125;-39
2022/10/20 09:08:50;;;;;;;9.45;5.60;;;9.90;99.90;;;;;;4981180;28;20129;-39
2022/10/20 09:11:33;;;;;;;8.60;5.43;;;10.00;99.90;;;;;;4977833;28;20034;-39
2022/10/20 09:13:59;;;;;;;;;;;10.10;99.90;;;;;;4987209;28;20153;-43
2022/10/20 09:16:36;;;;;;;8.55;5.05;;;10.20;99.90;;;;;;4985781;28;20468;-39
2022/10/20 09:19:05;;;;;;;8.70;5.10;;;10.30;99.90;;;;;;4990106;28;20118;-41
2022/10/20 09:21:34;;;;;;;13.25;5.10;;;10.50;99.90;;;;;;4988548;28;20042;-39
2022/10/20 09:24:02;;;;;;;7.95;4.80;;;10.50;99.90;;;;;;4981856;28;20394;-39
2022/10/20 09:26:33;;;;;;;7.95;5.43;;;10.60;99.90;;;;;;4987991;28;20046;-39
2022/10/20 09:29:20;;;;;;;8.98;5.35;;;10.70;99.90;;;;;;4985723;28;20045;-39
2022/10/20 09:31:52;;;;;;;9.30;5.18;;;10.80;99.90;;;;;;4986248;28;20045;-40
2022/10/20 09:34:28;;;;;;;9.02;4.95;;;10.90;99.90;;;;;;4988224;28;20093;-39
2022/10/20 09:37:11;;;;;;;8.38;4.82;;;11.00;99.90;;;;;;4982921;28;20206;-40
2022/10/20 09:39:46;;;;;;;8.38;4.82;;;11.10;99.90;;;;;;4982650;28;20050;-40
2022/10/20 09:42:16;;;;;;;6.65;4.60;;;11.30;99.90;;;;;;4982855;28;20058;-40
2022/10/20 09:44:52;;;;;;;7.93;4.47;;;11.40;99.90;;;;;;4978150;28;20126;-38
2022/10/20 09:47:21;;;;;;;8.32;4.25;;;11.50;99.90;;;;;;4981318;28;20046;-39
2022/10/20 09:49:53;;;;;;;12.70;4.70;;;11.60;99.90;;;;;;4981307;28;20084;-38
2022/10/20 09:52:24;;;;;;;6.68;3.92;;;11.70;99.90;;;;;;4987700;28;20483;-38
2022/10/20 09:54:55;;;;;;;7.85;4.47;;;11.80;99.90;;;;;;4987073;28;20050;-36
2022/10/20 09:57:22;;;;;;;8.83;4.50;;;11.90;99.90;;;;;;4986130;28;20042;-41
2022/10/20 09:59:50;;;;;;;6.25;4.72;;;12.00;99.90;;;;;;4987737;28;20038;-40
2022/10/20 10:02:16;;;;;;;9.25;5.28;;;12.10;99.90;;;;;;4985680;28;20411;-45
2022/10/20 10:04:45;;;;;;;9.55;4.47;;;12.20;99.90;;;;;;4991184;28;20496;-40
2022/10/20 10:07:30;;;;;;;6.32;4.43;;;12.30;99.90;;;;;;4986162;28;20496;-39
2022/10/20 10:10:17;;;;;;;7.97;4.55;;;12.40;99.90;;;;;;4986245;28;20085;-40
2022/10/20 10:12:51;;;;;;;7.47;4.18;;;12.40;99.90;;;;;;4978168;28;20116;-40
2022/10/20 10:15:27;;;;;;;6.15;4.25;;;12.40;99.90;;;;;;4988739;28;20034;-42
2022/10/20 10:17:54;;;;;;;6.80;4.57;;;12.50;99.90;;;;;;4983972;28;20030;-40
2022/10/20 10:20:36;;;;;;;9.07;5.07;;;12.60;99.90;;;;;;4986378;28;20038;-40
2022/10/20 10:23:23;;;;;;;8.00;4.72;;;12.70;99.90;;;;;;4981165;28;20043;-40
2022/10/20 10:25:50;;;;;;;8.43;4.43;;;12.80;99.90;;;;;;4974418;28;20065;-43
2022/10/20 10:28:35;;;;;;;7.00;4.45;;;12.80;99.90;;;;;;4979614;28;20046;-41
2022/10/20 10:31:15;;;;;;;7.22;4.63;;;12.80;99.90;;;;;;4984741;28;20046;-41
2022/10/20 10:33:40;;;;;;;6.28;4.47;;;12.80;99.90;;;;;;4988032;28;20047;-41
2022/10/20 10:36:14;;;;;;;14.23;5.72;;;12.90;99.90;;;;;;4983495;28;20044;-40
2022/10/20 10:38:40;;;;;;;8.23;4.30;;;12.90;99.90;;;;;;4984102;28;20125;-40
2022/10/20 10:41:29;;;;;;;7.63;4.50;;;12.90;99.90;;;;;;4978668;28;20042;-41
2022/10/20 10:44:14;;;;;;;7.47;4.55;;;12.80;99.90;;;;;;4980986;28;20108;-38
2022/10/20 10:46:49;;;;;;;7.15;4.22;;;12.80;99.90;;;;;;4983888;28;20050;-38
2022/10/20 10:49:39;;;;;;;8.13;4.35;;;12.80;99.90;;;;;;4985928;28;20507;-38
2022/10/20 10:52:08;;;;;;;7.55;4.57;;;12.80;99.90;;;;;;4981045;28;20043;-38
2022/10/20 10:55:00;;;;;;;6.50;4.18;;;12.70;99.90;;;;;;4982955;28;20047;-39
2022/10/20 10:57:44;;;;;;;8.50;5.05;;;12.70;99.90;;;;;;4985256;28;20068;-39
2022/10/20 11:00:34;;;;;;;7.32;4.70;;;12.70;99.90;;;;;;4978673;28;20096;-38
2022/10/20 11:03:14;;;;;;;9.05;4.68;;;12.60;99.90;;;;;;4944617;28;20476;-40
2022/10/20 11:06:18;;;;;;;7.32;5.00;;;12.60;99.90;;;;;;4987191;28;20096;-39
2022/10/20 11:09:10;;;;;;;7.80;4.75;;;12.50;99.90;;;;;;4967614;28;20173;-39
2022/10/20 11:11:51;;;;;;;8.13;4.50;;;12.50;99.90;;;;;;4986893;28;20084;-39
2022/10/20 11:14:34;;;;;;;8.13;4.90;;;12.50;99.90;;;;;;4986466;28;20042;-38
2022/10/20 11:17:05;;;;;;;8.05;4.85;;;12.60;99.90;;;;;;4988537;28;20065;-38
2022/10/20 11:19:57;;;;;;;7.93;4.88;;;12.50;99.90;;;;;;4984097;28;20045;-38
2022/10/20 11:22:28;;;;;;;7.97;5.25;;;12.60;99.90;;;;;;4987518;28;20038;-39
2022/10/20 11:25:00;;;;;;;9.27;5.25;;;12.60;99.90;;;;;;4979134;28;20046;-46
2022/10/20 11:27:31;;;;;;;8.57;4.72;;;12.60;99.90;;;;;;4984371;28;20053;-46
2022/10/20 11:30:13;;;;;;;8.82;5.00;;;12.50;99.90;;;;;;4986590;28;20050;-43
2022/10/20 11:32:49;;;;;;;9.85;5.43;;;12.50;99.90;;;;;;4987661;28;20042;-47
2022/10/20 11:35:15;;;;;;;8.32;4.88;;;12.50;99.90;;;;;;4975330;28;20440;-42
2022/10/20 11:37:47;;;;;;;8.55;5.25;;;12.50;99.90;;;;;;4981435;28;20104;-45
2022/10/20 11:40:37;;;;;;;8.40;5.40;;;12.50;99.90;;;;;;4986164;28;20099;-40
2022/10/20 11:43:38;;;;;;;8.68;4.97;;;12.50;99.90;;;;;;4986766;28;20293;-37
2022/10/20 11:46:07;;;;;;;6.82;4.80;;;12.50;99.90;;;;;;4947565;28;20057;-38
2022/10/20 11:48:54;;;;;;;7.45;4.70;;;12.50;99.90;;;;;;4985757;28;20038;-38
2022/10/20 11:51:28;;;;;;;8.38;5.55;;;12.50;99.90;;;;;;4990014;28;20519;-37
2022/10/20 11:54:32;;;;;;;12.38;5.60;;;12.50;99.90;;;;;;4986636;28;20050;-38
2022/10/20 11:57:12;;;;;;;;;;;12.50;99.90;;;;;;4986701;28;20081;-37
2022/10/20 12:00:06;;;;;;;12.40;5.18;;;12.50;99.90;;;;;;4984758;28;19921;-39
2022/10/20 12:02:48;;;;;;;9.38;5.35;;;12.50;99.90;;;;;;4990297;28;20047;-38
2022/10/20 12:05:26;;;;;;;;;;;12.50;99.90;;;;;;4989105;28;20053;-38
2022/10/20 12:07:54;;;;;;;11.55;5.70;;;12.40;99.90;;;;;;4988381;28;20375;-38
2022/10/20 12:10:53;;;;;;;10.23;5.60;;;12.40;99.90;;;;;;4989995;28;20034;-37
2022/10/20 12:13:30;;;;;;;11.43;5.80;;;12.40;99.90;;;;;;4994088;28;20391;-39
2022/10/20 12:15:56;;;;;;;9.40;5.82;;;12.40;99.90;;;;;;4994701;28;20495;-38
2022/10/20 12:18:31;;;;;;;9.95;5.30;;;12.40;99.90;;;;;;4990741;28;20129;-41
2022/10/20 12:21:00;;;;;;;9.32;5.80;;;12.40;99.90;;;;;;4987811;28;20132;-39
2022/10/20 12:23:44;;;;;;;10.60;6.05;;;12.40;99.90;;;;;;4990905;28;20074;-38
2022/10/20 12:26:28;;;;;;;13.75;7.85;;;12.40;99.90;;;;;;4990536;28;20045;-40
2022/10/20 12:29:18;;;;;;;9.90;6.38;;;12.40;99.90;;;;;;4993550;28;20115;-39
2022/10/20 12:32:22;;;;;;;12.43;6.30;;;12.40;99.90;;;;;;4994024;28;20039;-44
2022/10/20 12:34:50;;;;;;;12.35;7.00;;;12.40;99.90;;;;;;4987294;28;20050;-38
2022/10/20 12:37:28;;;;;;;10.30;5.35;;;12.30;99.90;;;;;;4992820;28;20492;-39
2022/10/20 12:39:55;;;;;;;11.13;6.97;;;12.30;99.90;;;;;;4993593;28;20074;-39
2022/10/20 12:42:29;;;;;;;10.55;6.93;;;12.30;99.90;;;;;;4991297;28;20511;-39
2022/10/20 12:45:04;;;;;;;14.02;6.95;;;12.30;99.90;;;;;;4992782;28;20050;-38
2022/10/20 12:47:32;;;;;;;10.95;6.97;;;12.30;99.90;;;;;;4990452;28;20046;-39
2022/10/20 12:50:17;;;;;;;10.70;6.20;;;12.30;99.90;;;;;;4990931;28;20141;-38
2022/10/20 12:52:43;;;;;;;10.85;6.22;;;12.30;99.90;;;;;;4988033;28;20073;-39
2022/10/20 12:55:17;;;;;;;10.85;6.53;;;12.30;99.90;;;;;;4990792;28;20081;-38
2022/10/20 12:57:44;;;;;;;12.55;7.10;;;12.30;99.90;;;;;;4990886;28;20129;-38
2022/10/20 13:00:18;;;;;;;11.70;6.88;;;12.30;99.90;;;;;;4991336;28;20084;-38
2022/10/20 13:02:50;;;;;;;10.32;7.13;;;12.30;99.90;;;;;;4991354;28;20559;-39
2022/10/20 13:05:24;;;;;;;9.82;6.72;;;12.40;99.90;;;;;;4985455;28;20046;-39
2022/10/20 13:07:51;;;;;;;10.63;7.15;;;12.40;99.90;;;;;;4993170;28;20088;-39
2022/10/20 13:10:26;;;;;;;13.27;7.05;;;12.40;99.90;;;;;;4990896;28;20038;-38
2022/10/20 13:13:00;;;;;;;11.68;7.05;;;12.30;99.90;;;;;;4992913;28;20502;-39